sensor_id;sensor_type;location;lat;lon;timestamp;P1;durP1;ratioP1;P2;durP2;ratioP2
45382;SDS011;42455;51.660;5.824;2022-07-11T00:00:04;6.0;;;5.0;;
45382;SDS011;42455;51.660;5.824;2022-07-11T00:05:10;6.0;;;5.0;;
45382;SDS011;42455;51.660;5.824;2022-07-11T00:15:22;6.0;;;5.0;;
45382;SDS011;42455;51.660;5.824;2022-07-11T00:20:28;6.0;;;5.0;;
45382;SDS011;42455;51.660;5.824;2022-07-11T00:25:33;6.0;;;5.0;;
45382;SDS011;42455;51.660;5.824;2022-07-11T00:30:40;5.0;;;5.0;;
45382;SDS011;42455;51.660;5.824;2022-07-11T00:35:45;5.0;;;5.0;;
45382;SDS011;42455;51.660;5.824;2022-07-11T00:40:51;6.0;;;5.0;;
45382;SDS011;42455;51.660;5.824;2022-07-11T00:45:57;5.0;;;5.0;;
45382;SDS011;42455;51.660;5.824;2022-07-11T00:51:05;7.0;;;5.0;;
45382;SDS011;42455;51.660;5.824;2022-07-11T00:56:10;8.0;;;6.0;;
45382;SDS011;42455;51.660;5.824;2022-07-11T01:01:16;7.0;;;6.0;;
45382;SDS011;42455;51.660;5.824;2022-07-11T01:06:22;7.0;;;7.0;;
45382;SDS011;42455;51.660;5.824;2022-07-11T01:11:28;8.0;;;7.0;;
45382;SDS011;42455;51.660;5.824;2022-07-11T01:16:34;9.0;;;8.0;;
45382;SDS011;42455;51.660;5.824;2022-07-11T01:21:42;8.0;;;7.0;;
45382;SDS011;42455;51.660;5.824;2022-07-11T01:26:47;9.0;;;8.0;;
45382;SDS011;42455;51.660;5.824;2022-07-11T01:31:53;8.0;;;7.0;;
45382;SDS011;42455;51.660;5.824;2022-07-11T01:36:59;8.0;;;7.0;;
45382;SDS011;42455;51.660;5.824;2022-07-11T01:42:06;7.0;;;6.0;;
45382;SDS011;42455;51.660;5.824;2022-07-11T01:47:12;7.0;;;6.0;;
45382;SDS011;42455;51.660;5.824;2022-07-11T01:52:18;7.0;;;6.0;;
45382;SDS011;42455;51.660;5.824;2022-07-11T01:57:24;8.0;;;6.0;;
45382;SDS011;42455;51.660;5.824;2022-07-11T02:02:30;8.0;;;6.0;;
45382;SDS011;42455;51.660;5.824;2022-07-11T02:07:37;7.0;;;6.0;;
45382;SDS011;42455;51.660;5.824;2022-07-11T02:12:43;7.0;;;6.0;;
45382;SDS011;42455;51.660;5.824;2022-07-11T02:17:49;7.0;;;6.0;;
45382;SDS011;42455;51.660;5.824;2022-07-11T02:22:54;7.0;;;6.0;;
45382;SDS011;42455;51.660;5.824;2022-07-11T02:28:01;7.0;;;6.0;;
45382;SDS011;42455;51.660;5.824;2022-07-11T02:33:07;8.0;;;7.0;;
45382;SDS011;42455;51.660;5.824;2022-07-11T02:38:13;7.0;;;7.0;;
45382;SDS011;42455;51.660;5.824;2022-07-11T02:43:19;8.0;;;7.0;;
45382;SDS011;42455;51.660;5.824;2022-07-11T02:48:25;8.0;;;7.0;;
45382;SDS011;42455;51.660;5.824;2022-07-11T02:53:32;8.0;;;7.0;;
45382;SDS011;42455;51.660;5.824;2022-07-11T02:58:38;9.0;;;7.0;;
45382;SDS011;42455;51.660;5.824;2022-07-11T03:03:44;10.0;;;7.0;;
45382;SDS011;42455;51.660;5.824;2022-07-11T03:08:50;7.0;;;7.0;;
45382;SDS011;42455;51.660;5.824;2022-07-11T03:13:56;9.0;;;7.0;;
45382;SDS011;42455;51.660;5.824;2022-07-11T03:19:03;7.5;;;7.0;;
45382;SDS011;42455;51.660;5.824;2022-07-11T03:24:09;9.0;;;7.0;;
45382;SDS011;42455;51.660;5.824;2022-07-11T03:29:15;8.0;;;7.0;;
45382;SDS011;42455;51.660;5.824;2022-07-11T03:34:21;8.0;;;7.0;;
45382;SDS011;42455;51.660;5.824;2022-07-11T03:39:27;8.0;;;7.0;;
45382;SDS011;42455;51.660;5.824;2022-07-11T03:44:34;8.0;;;7.0;;
45382;SDS011;42455;51.660;5.824;2022-07-11T03:49:40;8.0;;;7.0;;
45382;SDS011;42455;51.660;5.824;2022-07-11T03:54:46;8.0;;;7.0;;
45382;SDS011;42455;51.660;5.824;2022-07-11T03:59:52;8.0;;;7.0;;
45382;SDS011;42455;51.660;5.824;2022-07-11T04:04:58;9.0;;;7.5;;
45382;SDS011;42455;51.660;5.824;2022-07-11T04:10:04;8.0;;;7.0;;
45382;SDS011;42455;51.660;5.824;2022-07-11T04:15:10;9.0;;;7.0;;
45382;SDS011;42455;51.660;5.824;2022-07-11T04:20:15;9.0;;;7.0;;
45382;SDS011;42455;51.660;5.824;2022-07-11T04:25:21;7.0;;;6.0;;
45382;SDS011;42455;51.660;5.824;2022-07-11T04:30:27;6.0;;;5.0;;
45382;SDS011;42455;51.660;5.824;2022-07-11T04:35:33;6.0;;;5.0;;
45382;SDS011;42455;51.660;5.824;2022-07-11T04:40:39;6.0;;;5.0;;
45382;SDS011;42455;51.660;5.824;2022-07-11T04:45:45;6.0;;;4.0;;
45382;SDS011;42455;51.660;5.824;2022-07-11T04:50:51;4.0;;;3.0;;
45382;SDS011;42455;51.660;5.824;2022-07-11T04:55:58;4.5;;;3.0;;
45382;SDS011;42455;51.660;5.824;2022-07-11T05:01:04;3.5;;;3.0;;
45382;SDS011;42455;51.660;5.824;2022-07-11T05:06:10;3.0;;;3.0;;
45382;SDS011;42455;51.660;5.824;2022-07-11T05:11:16;4.0;;;3.0;;
45382;SDS011;42455;51.660;5.824;2022-07-11T05:16:22;5.0;;;3.0;;
45382;SDS011;42455;51.660;5.824;2022-07-11T05:21:29;4.0;;;3.0;;
45382;SDS011;42455;51.660;5.824;2022-07-11T05:26:35;3.0;;;3.0;;
45382;SDS011;42455;51.660;5.824;2022-07-11T05:31:41;4.0;;;3.0;;
45382;SDS011;42455;51.660;5.824;2022-07-11T05:36:47;4.0;;;3.0;;
45382;SDS011;42455;51.660;5.824;2022-07-11T05:41:53;4.0;;;3.0;;
45382;SDS011;42455;51.660;5.824;2022-07-11T05:47:00;5.0;;;3.0;;
45382;SDS011;42455;51.660;5.824;2022-07-11T05:52:06;4.5;;;3.0;;
45382;SDS011;42455;51.660;5.824;2022-07-11T05:57:12;3.0;;;3.0;;
45382;SDS011;42455;51.660;5.824;2022-07-11T06:02:18;3.0;;;3.0;;
45382;SDS011;42455;51.660;5.824;2022-07-11T06:07:24;4.0;;;3.0;;
45382;SDS011;42455;51.660;5.824;2022-07-11T06:12:31;5.0;;;3.0;;
45382;SDS011;42455;51.660;5.824;2022-07-11T06:17:36;4.0;;;4.0;;
45382;SDS011;42455;51.660;5.824;2022-07-11T06:22:42;4.0;;;4.0;;
45382;SDS011;42455;51.660;5.824;2022-07-11T06:27:48;5.0;;;4.0;;
45382;SDS011;42455;51.660;5.824;2022-07-11T06:32:55;5.0;;;4.0;;
45382;SDS011;42455;51.660;5.824;2022-07-11T06:38:01;4.0;;;3.0;;
45382;SDS011;42455;51.660;5.824;2022-07-11T06:43:07;3.0;;;3.0;;
45382;SDS011;42455;51.660;5.824;2022-07-11T06:48:13;4.0;;;3.0;;
45382;SDS011;42455;51.660;5.824;2022-07-11T06:53:19;4.0;;;3.0;;
45382;SDS011;42455;51.660;5.824;2022-07-11T06:58:26;3.0;;;2.0;;
45382;SDS011;42455;51.660;5.824;2022-07-11T07:08:38;2.0;;;2.0;;
45382;SDS011;42455;51.660;5.824;2022-07-11T07:13:44;2.5;;;2.0;;
45382;SDS011;42455;51.660;5.824;2022-07-11T07:18:50;2.0;;;2.0;;
45382;SDS011;42455;51.660;5.824;2022-07-11T07:23:57;2.0;;;2.0;;
45382;SDS011;42455;51.660;5.824;2022-07-11T07:29:03;2.0;;;2.0;;
45382;SDS011;42455;51.660;5.824;2022-07-11T07:34:09;2.0;;;2.0;;
45382;SDS011;42455;51.660;5.824;2022-07-11T07:39:15;2.0;;;1.0;;
45382;SDS011;42455;51.660;5.824;2022-07-11T07:44:21;2.0;;;2.0;;
45382;SDS011;42455;51.660;5.824;2022-07-11T07:49:28;2.0;;;2.0;;
45382;SDS011;42455;51.660;5.824;2022-07-11T07:54:34;3.0;;;2.0;;
45382;SDS011;42455;51.660;5.824;2022-07-11T07:59:40;2.0;;;2.0;;
45382;SDS011;42455;51.660;5.824;2022-07-11T08:04:46;2.0;;;2.0;;
45382;SDS011;42455;51.660;5.824;2022-07-11T08:09:52;2.0;;;2.0;;
45382;SDS011;42455;51.660;5.824;2022-07-11T08:14:58;3.0;;;2.0;;
45382;SDS011;42455;51.660;5.824;2022-07-11T08:20:03;2.0;;;2.0;;
45382;SDS011;42455;51.660;5.824;2022-07-11T08:25:09;1.0;;;1.0;;
45382;SDS011;42455;51.660;5.824;2022-07-11T08:35:21;1.0;;;1.0;;
45382;SDS011;42455;51.660;5.824;2022-07-11T08:40:26;1.0;;;1.0;;
45382;SDS011;42455;51.660;5.824;2022-07-11T08:45:32;1.0;;;1.0;;
45382;SDS011;42455;51.660;5.824;2022-07-11T08:50:38;1.0;;;1.0;;
45382;SDS011;42455;51.660;5.824;2022-07-11T08:55:45;1.0;;;1.0;;
45382;SDS011;42455;51.660;5.824;2022-07-11T09:00:51;1.0;;;1.0;;
45382;SDS011;42455;51.660;5.824;2022-07-11T09:05:57;1.0;;;1.0;;
45382;SDS011;42455;51.660;5.824;2022-07-11T09:11:03;1.0;;;1.0;;
45382;SDS011;42455;51.660;5.824;2022-07-11T09:16:09;2.0;;;2.0;;
45382;SDS011;42455;51.660;5.824;2022-07-11T09:21:16;2.0;;;1.0;;
45382;SDS011;42455;51.660;5.824;2022-07-11T09:26:22;1.0;;;1.0;;
45382;SDS011;42455;51.660;5.824;2022-07-11T09:31:28;2.0;;;2.0;;
45382;SDS011;42455;51.660;5.824;2022-07-11T09:36:42;2.0;;;2.0;;
45382;SDS011;42455;51.660;5.824;2022-07-11T09:41:41;2.0;;;2.0;;
45382;SDS011;42455;51.660;5.824;2022-07-11T09:46:47;2.0;;;2.0;;
45382;SDS011;42455;51.660;5.824;2022-07-11T09:51:53;2.0;;;2.0;;
45382;SDS011;42455;51.660;5.824;2022-07-11T09:56:59;2.0;;;2.0;;
45382;SDS011;42455;51.660;5.824;2022-07-11T10:02:05;3.0;;;2.0;;
45382;SDS011;42455;51.660;5.824;2022-07-11T10:07:11;2.0;;;2.0;;
45382;SDS011;42455;51.660;5.824;2022-07-11T10:12:18;2.0;;;2.0;;
45382;SDS011;42455;51.660;5.824;2022-07-11T10:18:00;3.0;;;2.0;;
45382;SDS011;42455;51.660;5.824;2022-07-11T10:22:35;2.0;;;2.0;;
45382;SDS011;42455;51.660;5.824;2022-07-11T10:27:39;2.0;;;2.0;;
45382;SDS011;42455;51.660;5.824;2022-07-11T10:32:58;2.0;;;2.0;;
45382;SDS011;42455;51.660;5.824;2022-07-11T10:37:49;2.0;;;2.0;;
45382;SDS011;42455;51.660;5.824;2022-07-11T10:42:54;2.0;;;2.0;;
45382;SDS011;42455;51.660;5.824;2022-07-11T10:48:09;2.0;;;2.0;;
45382;SDS011;42455;51.660;5.824;2022-07-11T10:53:08;2.0;;;2.0;;
45382;SDS011;42455;51.660;5.824;2022-07-11T10:58:19;2.0;;;2.0;;
45382;SDS011;42455;51.660;5.824;2022-07-11T11:03:19;3.0;;;1.5;;
45382;SDS011;42455;51.660;5.824;2022-07-11T11:13:32;2.0;;;2.0;;
45382;SDS011;42455;51.660;5.824;2022-07-11T11:18:42;2.0;;;2.0;;
45382;SDS011;42455;51.660;5.824;2022-07-11T11:28:57;2.0;;;2.0;;
45382;SDS011;42455;51.660;5.824;2022-07-11T11:33:55;2.0;;;2.0;;
45382;SDS011;42455;51.660;5.824;2022-07-11T11:39:07;2.0;;;2.0;;
45382;SDS011;42455;51.660;5.824;2022-07-11T11:44:20;2.0;;;2.0;;
45382;SDS011;42455;51.660;5.824;2022-07-11T11:49:25;2.0;;;2.0;;
45382;SDS011;42455;51.660;5.824;2022-07-11T11:54:37;2.0;;;1.0;;
45382;SDS011;42455;51.660;5.824;2022-07-11T11:59:50;2.0;;;2.0;;
45382;SDS011;42455;51.660;5.824;2022-07-11T12:05:07;2.0;;;2.0;;
45382;SDS011;42455;51.660;5.824;2022-07-11T12:10:07;2.0;;;2.0;;
45382;SDS011;42455;51.660;5.824;2022-07-11T12:15:24;2.0;;;2.0;;
45382;SDS011;42455;51.660;5.824;2022-07-11T12:20:38;3.0;;;2.0;;
45382;SDS011;42455;51.660;5.824;2022-07-11T12:25:25;2.0;;;2.0;;
45382;SDS011;42455;51.660;5.824;2022-07-11T12:30:31;2.0;;;2.0;;
45382;SDS011;42455;51.660;5.824;2022-07-11T12:35:51;2.0;;;2.0;;
45382;SDS011;42455;51.660;5.824;2022-07-11T12:40:59;2.0;;;2.0;;
45382;SDS011;42455;51.660;5.824;2022-07-11T12:46:02;1.0;;;1.0;;
45382;SDS011;42455;51.660;5.824;2022-07-11T12:50:56;2.0;;;2.0;;
45382;SDS011;42455;51.660;5.824;2022-07-11T12:56:02;2.0;;;2.0;;
45382;SDS011;42455;51.660;5.824;2022-07-11T13:01:08;2.0;;;2.0;;
45382;SDS011;42455;51.660;5.824;2022-07-11T13:06:15;2.0;;;2.0;;
45382;SDS011;42455;51.660;5.824;2022-07-11T13:11:21;2.0;;;2.0;;
45382;SDS011;42455;51.660;5.824;2022-07-11T13:16:27;2.0;;;1.0;;
45382;SDS011;42455;51.660;5.824;2022-07-11T13:21:33;2.0;;;1.0;;
45382;SDS011;42455;51.660;5.824;2022-07-11T13:26:39;2.0;;;2.0;;
45382;SDS011;42455;51.660;5.824;2022-07-11T13:31:46;1.0;;;1.0;;
45382;SDS011;42455;51.660;5.824;2022-07-11T13:36:52;1.0;;;1.0;;
45382;SDS011;42455;51.660;5.824;2022-07-11T13:41:58;1.0;;;1.0;;
45382;SDS011;42455;51.660;5.824;2022-07-11T13:47:04;1.0;;;1.0;;
45382;SDS011;42455;51.660;5.824;2022-07-11T13:52:10;1.0;;;1.0;;
45382;SDS011;42455;51.660;5.824;2022-07-11T13:57:17;1.0;;;1.0;;
45382;SDS011;42455;51.660;5.824;2022-07-11T14:02:23;1.0;;;1.0;;
45382;SDS011;42455;51.660;5.824;2022-07-11T14:07:29;1.0;;;1.0;;
45382;SDS011;42455;51.660;5.824;2022-07-11T14:12:34;1.0;;;1.0;;
45382;SDS011;42455;51.660;5.824;2022-07-11T14:17:40;1.0;;;1.0;;
45382;SDS011;42455;51.660;5.824;2022-07-11T14:22:47;1.0;;;1.0;;
45382;SDS011;42455;51.660;5.824;2022-07-11T14:27:52;1.0;;;1.0;;
45382;SDS011;42455;51.660;5.824;2022-07-11T14:32:58;1.0;;;1.0;;
45382;SDS011;42455;51.660;5.824;2022-07-11T14:38:04;1.0;;;1.0;;
45382;SDS011;42455;51.660;5.824;2022-07-11T14:43:11;1.0;;;1.0;;
45382;SDS011;42455;51.660;5.824;2022-07-11T14:48:17;1.0;;;1.0;;
45382;SDS011;42455;51.660;5.824;2022-07-11T14:53:23;1.0;;;1.0;;
45382;SDS011;42455;51.660;5.824;2022-07-11T14:58:29;1.0;;;1.0;;
45382;SDS011;42455;51.660;5.824;2022-07-11T15:03:35;1.0;;;1.0;;
45382;SDS011;42455;51.660;5.824;2022-07-11T15:08:42;1.0;;;1.0;;
45382;SDS011;42455;51.660;5.824;2022-07-11T15:13:48;1.0;;;1.0;;
45382;SDS011;42455;51.660;5.824;2022-07-11T15:18:54;1.0;;;1.0;;
45382;SDS011;42455;51.660;5.824;2022-07-11T15:24:00;1.0;;;1.0;;
45382;SDS011;42455;51.660;5.824;2022-07-11T15:29:07;1.0;;;1.0;;
45382;SDS011;42455;51.660;5.824;2022-07-11T15:34:13;1.0;;;1.0;;
45382;SDS011;42455;51.660;5.824;2022-07-11T15:39:19;1.0;;;1.0;;
45382;SDS011;42455;51.660;5.824;2022-07-11T15:49:31;1.0;;;1.0;;
45382;SDS011;42455;51.660;5.824;2022-07-11T15:54:38;0.0;;;0.0;;
45382;SDS011;42455;51.660;5.824;2022-07-11T15:59:44;1.0;;;0.0;;
45382;SDS011;42455;51.660;5.824;2022-07-11T16:04:50;0.0;;;0.0;;
45382;SDS011;42455;51.660;5.824;2022-07-11T16:09:56;1.0;;;1.0;;
45382;SDS011;42455;51.660;5.824;2022-07-11T16:15:03;1.0;;;0.0;;
45382;SDS011;42455;51.660;5.824;2022-07-11T16:20:08;1.0;;;0.0;;
45382;SDS011;42455;51.660;5.824;2022-07-11T16:25:14;0.0;;;0.0;;
45382;SDS011;42455;51.660;5.824;2022-07-11T16:30:20;1.0;;;0.0;;
45382;SDS011;42455;51.660;5.824;2022-07-11T16:35:26;0.0;;;0.0;;
45382;SDS011;42455;51.660;5.824;2022-07-11T16:40:33;0.0;;;0.0;;
45382;SDS011;42455;51.660;5.824;2022-07-11T16:45:38;0.0;;;0.0;;
45382;SDS011;42455;51.660;5.824;2022-07-11T16:50:44;0.0;;;0.0;;
45382;SDS011;42455;51.660;5.824;2022-07-11T16:55:50;0.0;;;0.0;;
45382;SDS011;42455;51.660;5.824;2022-07-11T17:00:56;0.0;;;0.0;;
45382;SDS011;42455;51.660;5.824;2022-07-11T17:06:03;0.0;;;0.0;;
45382;SDS011;42455;51.660;5.824;2022-07-11T17:11:09;1.0;;;0.0;;
45382;SDS011;42455;51.660;5.824;2022-07-11T17:16:15;3.0;;;0.0;;
45382;SDS011;42455;51.660;5.824;2022-07-11T17:21:21;0.0;;;0.0;;
45382;SDS011;42455;51.660;5.824;2022-07-11T17:26:28;1.0;;;0.0;;
45382;SDS011;42455;51.660;5.824;2022-07-11T17:31:34;1.0;;;0.0;;
45382;SDS011;42455;51.660;5.824;2022-07-11T17:36:40;0.0;;;0.0;;
45382;SDS011;42455;51.660;5.824;2022-07-11T17:41:46;0.0;;;0.0;;
45382;SDS011;42455;51.660;5.824;2022-07-11T17:46:52;0.0;;;0.0;;
45382;SDS011;42455;51.660;5.824;2022-07-11T17:51:59;0.0;;;0.0;;
45382;SDS011;42455;51.660;5.824;2022-07-11T17:57:05;0.0;;;0.0;;
45382;SDS011;42455;51.660;5.824;2022-07-11T18:02:11;0.0;;;0.0;;
45382;SDS011;42455;51.660;5.824;2022-07-11T18:07:17;0.0;;;0.0;;
45382;SDS011;42455;51.660;5.824;2022-07-11T18:12:24;1.0;;;0.0;;
45382;SDS011;42455;51.660;5.824;2022-07-11T18:17:30;1.0;;;0.0;;
45382;SDS011;42455;51.660;5.824;2022-07-11T18:22:36;0.0;;;0.0;;
45382;SDS011;42455;51.660;5.824;2022-07-11T18:27:41;1.0;;;0.0;;
45382;SDS011;42455;51.660;5.824;2022-07-11T18:32:48;1.0;;;0.0;;
45382;SDS011;42455;51.660;5.824;2022-07-11T18:37:54;0.0;;;0.0;;
45382;SDS011;42455;51.660;5.824;2022-07-11T18:43:00;1.0;;;0.0;;
45382;SDS011;42455;51.660;5.824;2022-07-11T18:48:06;0.0;;;0.0;;
45382;SDS011;42455;51.660;5.824;2022-07-11T18:53:12;1.0;;;0.0;;
45382;SDS011;42455;51.660;5.824;2022-07-11T18:58:19;1.0;;;1.0;;
45382;SDS011;42455;51.660;5.824;2022-07-11T19:03:25;1.0;;;1.0;;
45382;SDS011;42455;51.660;5.824;2022-07-11T19:08:31;1.0;;;1.0;;
45382;SDS011;42455;51.660;5.824;2022-07-11T19:13:37;1.0;;;1.0;;
45382;SDS011;42455;51.660;5.824;2022-07-11T19:18:44;3.0;;;1.0;;
45382;SDS011;42455;51.660;5.824;2022-07-11T19:23:50;1.0;;;1.0;;
45382;SDS011;42455;51.660;5.824;2022-07-11T19:28:56;1.0;;;1.0;;
45382;SDS011;42455;51.660;5.824;2022-07-11T19:34:02;1.0;;;1.0;;
45382;SDS011;42455;51.660;5.824;2022-07-11T19:39:08;1.0;;;1.0;;
45382;SDS011;42455;51.660;5.824;2022-07-11T19:44:15;1.0;;;1.0;;
45382;SDS011;42455;51.660;5.824;2022-07-11T19:49:21;1.0;;;1.0;;
45382;SDS011;42455;51.660;5.824;2022-07-11T19:54:27;1.0;;;1.0;;
45382;SDS011;42455;51.660;5.824;2022-07-11T19:59:33;1.0;;;1.0;;
45382;SDS011;42455;51.660;5.824;2022-07-11T20:04:39;1.0;;;1.0;;
45382;SDS011;42455;51.660;5.824;2022-07-11T20:09:46;1.0;;;1.0;;
45382;SDS011;42455;51.660;5.824;2022-07-11T20:14:52;1.0;;;1.0;;
45382;SDS011;42455;51.660;5.824;2022-07-11T20:19:57;1.0;;;1.0;;
45382;SDS011;42455;51.660;5.824;2022-07-11T20:25:04;1.0;;;1.0;;
45382;SDS011;42455;51.660;5.824;2022-07-11T20:30:09;2.0;;;1.0;;
45382;SDS011;42455;51.660;5.824;2022-07-11T20:35:15;2.0;;;1.0;;
45382;SDS011;42455;51.660;5.824;2022-07-11T20:40:21;1.0;;;1.0;;
45382;SDS011;42455;51.660;5.824;2022-07-11T20:45:27;1.0;;;1.0;;
45382;SDS011;42455;51.660;5.824;2022-07-11T20:50:33;1.0;;;1.0;;
45382;SDS011;42455;51.660;5.824;2022-07-11T20:55:40;1.0;;;1.0;;
45382;SDS011;42455;51.660;5.824;2022-07-11T21:00:46;1.0;;;1.0;;
45382;SDS011;42455;51.660;5.824;2022-07-11T21:05:52;2.0;;;2.0;;
45382;SDS011;42455;51.660;5.824;2022-07-11T21:10:58;1.0;;;1.0;;
45382;SDS011;42455;51.660;5.824;2022-07-11T21:16:04;2.0;;;1.0;;
45382;SDS011;42455;51.660;5.824;2022-07-11T21:21:11;2.0;;;1.0;;
45382;SDS011;42455;51.660;5.824;2022-07-11T21:26:17;2.0;;;2.0;;
45382;SDS011;42455;51.660;5.824;2022-07-11T21:31:23;2.0;;;2.0;;
45382;SDS011;42455;51.660;5.824;2022-07-11T21:36:29;2.0;;;2.0;;
45382;SDS011;42455;51.660;5.824;2022-07-11T21:41:35;2.0;;;2.0;;
45382;SDS011;42455;51.660;5.824;2022-07-11T21:46:42;2.0;;;2.0;;
45382;SDS011;42455;51.660;5.824;2022-07-11T21:51:48;2.0;;;2.0;;
45382;SDS011;42455;51.660;5.824;2022-07-11T21:56:54;2.0;;;2.0;;
45382;SDS011;42455;51.660;5.824;2022-07-11T22:02:00;2.0;;;2.0;;
45382;SDS011;42455;51.660;5.824;2022-07-11T22:07:06;2.0;;;2.0;;
45382;SDS011;42455;51.660;5.824;2022-07-11T22:12:13;2.0;;;2.0;;
45382;SDS011;42455;51.660;5.824;2022-07-11T22:17:18;3.0;;;3.0;;
45382;SDS011;42455;51.660;5.824;2022-07-11T22:22:24;3.0;;;2.5;;
45382;SDS011;42455;51.660;5.824;2022-07-11T22:27:30;3.0;;;2.0;;
45382;SDS011;42455;51.660;5.824;2022-07-11T22:32:37;3.0;;;2.0;;
45382;SDS011;42455;51.660;5.824;2022-07-11T22:37:43;3.0;;;2.0;;
45382;SDS011;42455;51.660;5.824;2022-07-11T22:42:49;3.0;;;3.0;;
45382;SDS011;42455;51.660;5.824;2022-07-11T22:47:55;3.0;;;3.0;;
45382;SDS011;42455;51.660;5.824;2022-07-11T22:53:02;2.0;;;2.0;;
45382;SDS011;42455;51.660;5.824;2022-07-11T22:58:08;3.0;;;2.0;;
45382;SDS011;42455;51.660;5.824;2022-07-11T23:03:14;3.0;;;3.0;;
45382;SDS011;42455;51.660;5.824;2022-07-11T23:08:20;2.5;;;2.0;;
45382;SDS011;42455;51.660;5.824;2022-07-11T23:13:26;3.0;;;2.0;;
45382;SDS011;42455;51.660;5.824;2022-07-11T23:18:32;3.0;;;2.0;;
45382;SDS011;42455;51.660;5.824;2022-07-11T23:23:39;3.0;;;2.5;;
45382;SDS011;42455;51.660;5.824;2022-07-11T23:28:45;3.0;;;3.0;;
45382;SDS011;42455;51.660;5.824;2022-07-11T23:33:51;3.0;;;2.0;;
45382;SDS011;42455;51.660;5.824;2022-07-11T23:38:57;3.0;;;3.0;;
45382;SDS011;42455;51.660;5.824;2022-07-11T23:44:04;3.0;;;3.0;;
45382;SDS011;42455;51.660;5.824;2022-07-11T23:49:10;3.0;;;3.0;;
45382;SDS011;42455;51.660;5.824;2022-07-11T23:54:16;3.0;;;3.0;;
45382;SDS011;42455;51.660;5.824;2022-07-11T23:59:22;3.0;;;3.0;;
